Avoca, New York
Current Conditions -  °F | °C
As of 11:54 AM on Friday 31 Oct 2014 (Local Time) from KDSV Reporting Station
Overcast Overcast  
Wind Chill: 48°   Ceiling: 5500
Heat Index: 48°   Visibility: 10mi
Dew Point: 37°   Wind: 3mph
Humidity: 66%   Direction: 50°NE
Pressure: 29.95"   Gusts: NA
Location:  42.41°N, 77.42°W
Report Text: KDSV 311554Z AUTO 05003KT 10SM BKN055 OVC100 09/03 A2995 RMK AO2 SLP154 T00890028
Loading
Personal Weather Stations






























Interactive Weather Map New forecast layout! Learn more

10-Day Weather Forecast

Advertisements
Track Severe Weather on mobile